メインページ
METAR-TAF:

METAR-TAF

空港 :

テグシガルパ, ホンジュラス

トンコンティン国際空港

緯度: 14-03N, 経度: 087-13W, 海抜: 994m

現時点の気象観測

当レポートは30分前の17:00(UTC)に作成
東/北東の風 4kt
気温 29°C
湿度 58%
気圧 1017 hPa
視程10km以上
高度2800ftの千切れ雲あり, 塔状積雲.

METAR: MHTG 231700Z 06004KT 9999 BKN028TCU 29/20 Q1017 A3003 NOSIG

時間: 11:30 (17:30 UTC)

予報

当レポートは7時間5分前の10:25(UTC)に作成
予報は23日の 12時(UTC)から 24日の 12時(UTC)まで有効
の風 kt
視程: 8000m
高度1000ftの雲はほとんどない
高度2600ftの雲は散在している
23日の 13時(UTC)から 23日の 15時(UTC)まで徐々に
北東の風 6kt
視程10km以上
高度2800ftの雲は散在している, 塔状積雲.
23日の 22時(UTC)から 24日の 02時(UTC)まで一時的に
南東の風 6kt
視程: 6000m
高度2800ftの雲は散在している, 塔状積雲.
高度3000ftの雲は散在している, 積乱雲.
激しい雷雨, 雨
24日の 02時(UTC)から 24日の 04時(UTC)まで徐々に
東/北東の風 4kt
視程: 8000m
高度2500ftの雲は散在している
高度2800ftの雲はほとんどない, 積乱雲.
高度8000ftの千切れ雲あり
近辺でにわか雨
24日の 08時(UTC)から 24日の 10時(UTC)まで徐々に
の風 kt
視程: 6000m
高度700ftの雲はほとんどない
高度2400ftの雲は散在している

TAF: MHTG 231025Z 2312/2412 00000KT 8000 FEW010 SCT026 TX30/2321Z TN18/2412Z BECMG 2313/2315 05006KT 9999 SCT028TCU TEMPO 2322/2402 14006KT 6000 TSRA SCT028TCU SCT030CB BECMG 2402/2404 07004KT 8000 VCSH SCT025 FEW028CB BKN080 BECMG 2408/2410 00000KT 6000 NSW FEW007 SCT024

4,000以上の空港の気象観測と天気予報(METAR報とTAF報)

利用可能な観測所は地図上に黄色い丸と赤い丸で示す。

丸の上にカーソルを重ねると観測所名を参照できる。

次にクリックすると気象観測と天気予報を参照できる。

マップの切り替え:黒色「×」印の緑ボタンをクリックして拡大、「-」印の緑ボタンをクリックして縮小、緑色の三角印をクリックして隣りの地図に切り替え


METAR-TAF: